Time;durP1;ratioP1;P1;durP2;ratioP2;P2;SDS_P1;SDS_P2;PMS_P1;PMS_P2;Temp;Humidity;BMP_temperature;BMP_pressure;BME280_temperature;BME280_humidity;BME280_pressure;Samples;Min_cycle;Max_cycle;Signal;HPM_P1;HPM_P2
2022/08/13 00:01:30;;;;;;;;;;;;;;;18.91;65.39;99519.38;5054975;28;19979;-70
2022/08/13 00:04:01;;;;;;;;;;;;;;;18.88;65.81;99510.91;5055036;28;19994;-70
2022/08/13 00:09:23;;;;;;;;;;;;;;;18.82;65.91;99516.28;5047751;28;19925;-70
2022/08/13 00:14:48;;;;;;;;;;;;;;;18.93;65.64;99509.00;5054485;28;20019;-70
2022/08/13 00:17:19;;;;;;;;;;;;;;;18.90;65.50;99506.53;5054414;28;19925;-70
2022/08/13 00:20:10;;;;;;;;;;;;;;;18.96;65.53;99514.88;5054395;28;20361;-70
2022/08/13 00:22:41;;;;;;;;;;;;;;;18.98;65.06;99512.25;5054486;28;20341;-70
2022/08/13 00:25:23;;;;;;;;;;;;;;;18.93;65.24;99504.63;5054600;28;19925;-70
2022/08/13 00:27:57;;;;;;;;;;;;;;;18.91;65.12;99509.03;5054291;28;19924;-70
2022/08/13 00:30:33;;;;;;;;;;;;;;;18.94;65.16;99510.66;5054219;28;19931;-70
2022/08/13 00:33:04;;;;;;;;;;;;;;;19.00;65.02;99505.28;5054143;28;19939;-70
2022/08/13 00:35:36;;;;;;;;;;;;;;;18.97;64.89;99502.78;5054555;28;19979;-70
2022/08/13 00:38:13;;;;;;;;;;;;;;;18.92;65.15;99499.53;5054080;28;19925;-70
2022/08/13 00:40:42;;;;;;;;;;;;;;;18.90;65.10;99493.59;5054104;28;19970;-70
2022/08/13 00:43:25;;;;;;;;;;;;;;;18.79;65.54;99490.56;5053911;28;19925;-70
2022/08/13 00:45:55;;;;;;;;;;;;;;;18.67;65.87;99495.28;5054362;28;19980;-70
2022/08/13 00:51:05;;;;;;;;;;;;;;;18.59;66.35;99489.56;5054289;28;19964;-70
2022/08/13 00:53:37;;;;;;;;;;;;;;;18.55;66.55;99482.78;5053664;28;19979;-71
2022/08/13 00:56:14;;;;;;;;;;;;;;;18.53;66.63;99489.75;5053912;28;19924;-71
2022/08/13 00:58:43;;;;;;;;;;;;;;;18.68;66.48;99481.44;5053952;28;19925;-70
2022/08/13 01:01:12;;;;;;;;;;;;;;;18.90;66.05;99478.06;5054149;28;19925;-71
2022/08/13 01:03:45;;;;;;;;;;;;;;;19.01;65.62;99475.91;5053729;28;19975;-70
2022/08/13 01:06:35;;;;;;;;;;;;;;;19.08;65.31;99473.03;5053819;28;19924;-70
2022/08/13 01:09:08;;;;;;;;;;;;;;;19.06;65.21;99473.97;5054606;28;19931;-70
2022/08/13 01:12:00;;;;;;;;;;;;;;;19.03;65.35;99468.91;5054085;28;19932;-70
2022/08/13 01:14:33;;;;;;;;;;;;;;;18.96;65.56;99468.31;5053671;28;19932;-70
2022/08/13 01:17:02;;;;;;;;;;;;;;;19.02;65.61;99464.66;5052894;28;19971;-71
2022/08/13 01:19:44;;;;;;;;;;;;;;;19.05;65.33;99459.38;5053775;28;19925;-70
2022/08/13 01:22:22;;;;;;;;;;;;;;;19.07;65.09;99465.34;5052741;28;20358;-70
2022/08/13 01:25:05;;;;;;;;;;;;;;;19.03;65.17;99456.00;5053611;28;19924;-70
2022/08/13 01:27:41;;;;;;;;;;;;;;;18.94;65.13;99464.94;5053670;28;19974;-70
2022/08/13 01:30:14;;;;;;;;;;;;;;;18.66;65.44;99457.41;5053946;28;19932;-70
2022/08/13 01:32:44;;;;;;;;;;;;;;;18.42;65.85;99454.84;5053601;28;19929;-70
2022/08/13 01:35:26;;;;;;;;;;;;;;;18.18;66.66;99461.72;5053802;28;19970;-70
2022/08/13 01:37:57;;;;;;;;;;;;;;;18.08;67.19;99452.59;5053478;28;19932;-70
2022/08/13 01:40:31;;;;;;;;;;;;;;;18.14;67.35;99454.94;5054128;28;20335;-70
2022/08/13 01:43:01;;;;;;;;;;;;;;;18.26;67.00;99453.69;5053631;28;20370;-70
2022/08/13 01:45:51;;;;;;;;;;;;;;;18.22;67.30;99455.53;5052564;28;19925;-70
2022/08/13 01:50:59;;;;;;;;;;;;;;;18.25;67.38;99452.84;5053742;28;19925;-70
2022/08/13 01:53:29;;;;;;;;;;;;;;;18.30;67.20;99450.94;5053662;28;19963;-70
2022/08/13 01:56:03;;;;;;;;;;;;;;;18.33;66.78;99440.47;5053303;28;19925;-70
2022/08/13 01:58:48;;;;;;;;;;;;;;;18.34;66.34;99436.16;5053671;28;19932;-70
2022/08/13 02:01:36;;;;;;;;;;;;;;;18.24;66.63;99427.91;5053572;28;20290;-70
2022/08/13 02:04:13;;;;;;;;;;;;;;;18.11;66.97;99429.25;5053601;28;19932;-69
2022/08/13 02:06:53;;;;;;;;;;;;;;;18.04;67.41;99433.75;5057184;28;20046;-70
2022/08/13 02:09:25;;;;;;;;;;;;;;;18.05;67.30;99426.88;5057209;28;19928;-70
2022/08/13 02:12:14;;;;;;;;;;;;;;;17.86;68.11;99428.41;5057114;28;20317;-70
2022/08/13 02:15:05;;;;;;;;;;;;;;;17.75;68.68;99435.69;5056727;28;19978;-71
2022/08/13 02:17:38;;;;;;;;;;;;;;;17.55;68.71;99432.91;5055496;28;19924;-70
2022/08/13 02:20:27;;;;;;;;;;;;;;;17.44;69.04;99439.22;5056385;28;19932;-70
2022/08/13 02:22:56;;;;;;;;;;;;;;;17.46;68.94;99430.59;5057067;28;20366;-70
2022/08/13 02:25:28;;;;;;;;;;;;;;;17.52;69.11;99428.69;5056422;28;19925;-69
2022/08/13 02:27:59;;;;;;;;;;;;;;;17.66;68.87;99425.66;5056569;28;19968;-70
2022/08/13 02:30:30;;;;;;;;;;;;;;;17.77;68.95;99423.56;5056480;28;19924;-70
2022/08/13 02:33:00;;;;;;;;;;;;;;;17.85;68.89;99421.56;5056402;28;19979;-70
2022/08/13 02:35:29;;;;;;;;;;;;;;;17.97;68.50;99415.97;5055156;28;19928;-70
2022/08/13 02:38:15;;;;;;;;;;;;;;;17.96;68.55;99419.44;5056400;28;19943;-70
2022/08/13 02:43:46;;;;;;;;;;;;;;;17.99;68.69;99414.19;5056721;28;19924;-70
2022/08/13 02:46:26;;;;;;;;;;;;;;;17.92;68.85;99417.88;5056181;28;20382;-70
2022/08/13 02:48:56;;;;;;;;;;;;;;;17.85;68.90;99416.41;5056109;28;19925;-70
2022/08/13 02:51:25;;;;;;;;;;;;;;;17.82;69.24;99416.50;5056368;28;20015;-70
2022/08/13 02:54:16;;;;;;;;;;;;;;;17.90;68.78;99419.66;5056376;28;19924;-69
2022/08/13 02:56:49;;;;;;;;;;;;;;;17.86;68.45;99418.91;5055996;28;20016;-70
2022/08/13 02:59:17;;;;;;;;;;;;;;;17.82;68.44;99419.06;5055903;28;19932;-70
2022/08/13 03:02:07;;;;;;;;;;;;;;;17.71;68.73;99418.59;5056256;28;19956;-70
2022/08/13 03:04:44;;;;;;;;;;;;;;;17.70;68.58;99420.34;5055802;28;19936;-70
2022/08/13 03:07:13;;;;;;;;;;;;;;;17.66;68.58;99415.34;5055777;28;19960;-70
2022/08/13 03:09:41;;;;;;;;;;;;;;;17.60;68.57;99416.38;5056038;28;20328;-70
2022/08/13 03:12:17;;;;;;;;;;;;;;;17.57;68.40;99411.31;5055735;28;19928;-70
2022/08/13 03:14:56;;;;;;;;;;;;;;;17.55;68.19;99413.09;5056041;28;19947;-70
2022/08/13 03:17:25;;;;;;;;;;;;;;;17.52;67.86;99417.50;5055881;28;19932;-70
2022/08/13 03:19:57;;;;;;;;;;;;;;;17.49;67.60;99420.19;5055996;28;19924;-70
2022/08/13 03:22:27;;;;;;;;;;;;;;;17.47;67.82;99414.22;5055844;28;19925;-70
2022/08/13 03:24:55;;;;;;;;;;;;;;;17.46;67.91;99412.53;5055483;28;19960;-70
2022/08/13 03:27:26;;;;;;;;;;;;;;;17.42;67.78;99407.47;5055305;28;19932;-70
2022/08/13 03:29:59;;;;;;;;;;;;;;;17.36;67.96;99402.53;5055681;28;20340;-70
2022/08/13 03:32:40;;;;;;;;;;;;;;;17.32;68.00;99406.06;5055689;28;20004;-70
2022/08/13 03:35:16;;;;;;;;;;;;;;;17.30;68.60;99407.00;5055654;28;19956;-70
2022/08/13 03:38:06;;;;;;;;;;;;;;;17.33;68.79;99407.78;5055182;28;19974;-70
2022/08/13 03:43:20;;;;;;;;;;;;;;;17.29;69.51;99405.34;5055163;28;19931;-70
2022/08/13 03:45:51;;;;;;;;;;;;;;;17.25;69.67;99408.94;5055390;28;19925;-71
2022/08/13 03:48:25;;;;;;;;;;;;;;;17.19;69.89;99409.94;5055205;28;20316;-70
2022/08/13 03:50:55;;;;;;;;;;;;;;;17.20;70.25;99414.19;5054901;28;20374;-70
2022/08/13 03:53:23;;;;;;;;;;;;;;;17.21;70.13;99418.47;5054856;28;19932;-70
2022/08/13 03:56:12;;;;;;;;;;;;;;;17.21;70.59;99413.31;5055271;28;20058;-70
2022/08/13 03:58:46;;;;;;;;;;;;;;;17.18;70.74;99413.41;5054789;28;19924;-70
2022/08/13 04:01:17;;;;;;;;;;;;;;;17.21;70.82;99412.47;5054808;28;19956;-70
2022/08/13 04:03:47;;;;;;;;;;;;;;;17.18;70.54;99408.25;5054981;28;19931;-70
2022/08/13 04:06:20;;;;;;;;;;;;;;;17.25;70.36;99412.31;5054665;28;20358;-70
2022/08/13 04:08:55;;;;;;;;;;;;;;;17.37;70.10;99419.66;5054597;28;19925;-70
2022/08/13 04:11:28;;;;;;;;;;;;;;;17.44;69.90;99421.16;5053746;28;20401;-70
2022/08/13 04:13:59;;;;;;;;;;;;;;;17.51;70.02;99420.97;5053413;28;19932;-70
2022/08/13 04:16:48;;;;;;;;;;;;;;;17.43;70.02;99428.97;5054505;28;19924;-71
2022/08/13 04:19:16;;;;;;;;;;;;;;;17.46;69.90;99425.44;5054340;28;19970;-70
2022/08/13 04:21:47;;;;;;;;;;;;;;;17.60;69.52;99423.28;5054748;28;19983;-71
2022/08/13 04:24:18;;;;;;;;;;;;;;;17.76;69.13;99421.84;5054570;28;20050;-71
2022/08/13 04:26:48;;;;;;;;;;;;;;;17.94;68.72;99406.59;5054024;28;20003;-71
2022/08/13 04:29:19;;;;;;;;;;;;;;;18.03;68.44;99405.41;5054206;28;19932;-71
2022/08/13 04:31:50;;;;;;;;;;;;;;;18.12;67.58;99405.09;5053419;28;19951;-71
2022/08/13 04:34:25;;;;;;;;;;;;;;;18.16;67.20;99398.94;5054641;28;19947;-70
2022/08/13 04:37:08;;;;;;;;;;;;;;;18.23;66.98;99392.66;5054489;28;19924;-71
2022/08/13 04:39:51;;;;;;;;;;;;;;;18.34;66.71;99398.25;5052871;28;20348;-71
2022/08/13 04:42:44;;;;;;;;;;;;;;;18.47;66.66;99394.38;5054202;28;19975;-70
2022/08/13 04:45:19;;;;;;;;;;;;;;;18.45;66.79;99390.94;5054004;28;20427;-71
2022/08/13 04:47:52;;;;;;;;;;;;;;;18.49;67.54;99395.16;5054300;28;20381;-71
2022/08/13 04:50:23;;;;;;;;;;;;;;;18.56;67.56;99398.34;5052779;28;19975;-71
2022/08/13 04:52:57;;;;;;;;;;;;;;;18.52;67.68;99395.00;5054341;28;19925;-71
2022/08/13 04:55:26;;;;;;;;;;;;;;;18.54;67.58;99398.41;5053966;28;19925;-71
2022/08/13 04:58:15;;;;;;;;;;;;;;;18.68;67.51;99398.72;5053633;28;19928;-71
2022/08/13 05:00:45;;;;;;;;;;;;;;;18.82;67.00;99394.75;5054183;28;19964;-71
2022/08/13 05:03:23;;;;;;;;;;;;;;;18.98;66.51;99396.66;5053913;28;19925;-71
2022/08/13 05:06:13;;;;;;;;;;;;;;;19.09;66.02;99391.09;5052616;28;20019;-71
2022/08/13 05:08:43;;;;;;;;;;;;;;;19.18;65.75;99385.53;5054801;28;19951;-70
2022/08/13 05:11:23;;;;;;;;;;;;;;;19.22;65.82;99382.75;5053859;28;19929;-71
2022/08/13 05:13:55;;;;;;;;;;;;;;;19.30;65.98;99382.44;5054109;28;19960;-71
2022/08/13 05:16:25;;;;;;;;;;;;;;;19.37;66.06;99379.59;5053786;28;19925;-70
2022/08/13 05:18:56;;;;;;;;;;;;;;;19.46;66.26;99380.94;5053739;28;19975;-71
2022/08/13 05:21:26;;;;;;;;;;;;;;;19.58;66.08;99385.59;5053689;28;20377;-71
2022/08/13 05:24:16;;;;;;;;;;;;;;;19.75;65.46;99377.97;5053721;28;19975;-71
2022/08/13 05:27:05;;;;;;;;;;;;;;;19.86;64.96;99375.78;5054012;28;19926;-71
2022/08/13 05:29:39;;;;;;;;;;;;;;;19.99;64.83;99371.72;5053676;28;19925;-71
2022/08/13 05:32:29;;;;;;;;;;;;;;;20.10;64.53;99367.84;5053582;28;20019;-71
2022/08/13 05:35:11;;;;;;;;;;;;;;;20.27;64.22;99367.97;5053927;28;19931;-71
2022/08/13 05:37:42;;;;;;;;;;;;;;;20.43;63.87;99368.94;5053597;28;20310;-71
2022/08/13 05:40:32;;;;;;;;;;;;;;;20.57;63.55;99361.34;5056436;28;20377;-71
2022/08/13 05:43:13;;;;;;;;;;;;;;;20.70;63.27;99367.66;5058154;28;19979;-71
2022/08/13 05:45:42;;;;;;;;;;;;;;;20.83;62.88;99366.16;5057782;28;19995;-71
2022/08/13 05:48:30;;;;;;;;;;;;;;;20.99;62.74;99367.13;5057620;28;19925;-72
2022/08/13 05:51:00;;;;;;;;;;;;;;;21.07;62.28;99372.81;5057271;28;19925;-71
2022/08/13 05:53:29;;;;;;;;;;;;;;;21.15;62.05;99368.09;5057432;28;19947;-71
2022/08/13 05:56:18;;;;;;;;;;;;;;;21.27;61.85;99372.69;5056152;28;19924;-72
2022/08/13 05:58:48;;;;;;;;;;;;;;;21.45;61.52;99370.09;5057452;28;19924;-71
2022/08/13 06:04:00;;;;;;;;;;;;;;;21.61;60.49;99382.25;5056952;28;19931;-72
2022/08/13 06:06:50;;;;;;;;;;;;;;;21.67;60.46;99371.53;5057201;28;19924;-73
2022/08/13 06:09:19;;;;;;;;;;;;;;;21.71;60.43;99373.09;5057226;28;19924;-72
2022/08/13 06:11:51;;;;;;;;;;;;;;;21.84;60.22;99363.75;5056848;28;20437;-74
2022/08/13 06:14:40;;;;;;;;;;;;;;;21.96;59.78;99367.47;5056855;28;19924;-72
2022/08/13 06:17:22;;;;;;;;;;;;;;;22.09;59.43;99363.31;5056388;28;19925;-74
2022/08/13 06:19:52;;;;;;;;;;;;;;;22.23;59.01;99365.19;5056620;28;19925;-73
2022/08/13 06:22:23;;;;;;;;;;;;;;;22.31;58.70;99361.28;5056407;28;19924;-71
2022/08/13 06:24:52;;;;;;;;;;;;;;;22.44;58.60;99362.28;5056782;28;19967;-72
2022/08/13 06:27:24;;;;;;;;;;;;;;;22.64;58.45;99361.22;5056510;28;19936;-72
2022/08/13 06:30:15;;;;;;;;;;;;;;;22.75;57.92;99364.06;5056777;28;20422;-71
2022/08/13 06:33:01;;;;;;;;;;;;;;;22.83;57.53;99372.28;5056316;28;19925;-70
2022/08/13 06:35:53;;;;;;;;;;;;;;;22.95;57.41;99361.19;5056490;28;19935;-72
2022/08/13 06:38:30;;;;;;;;;;;;;;;23.01;57.27;99365.22;5056325;28;19928;-72
2022/08/13 06:41:02;;;;;;;;;;;;;;;23.02;57.07;99361.69;5055915;28;19932;-71
2022/08/13 06:43:31;;;;;;;;;;;;;;;23.09;57.06;99369.06;5056309;28;20313;-72
2022/08/13 06:46:16;;;;;;;;;;;;;;;23.29;57.12;99362.72;5055059;28;19964;-73
2022/08/13 06:48:57;;;;;;;;;;;;;;;23.39;56.96;99369.13;5056388;28;19925;-73
2022/08/13 06:51:32;;;;;;;;;;;;;;;23.40;56.62;99368.19;5056008;28;19975;-73
2022/08/13 06:54:08;;;;;;;;;;;;;;;23.46;56.51;99361.78;5056320;28;20356;-72
2022/08/13 06:56:53;;;;;;;;;;;;;;;23.53;56.26;99369.16;5055805;28;19925;-72
2022/08/13 06:59:42;;;;;;;;;;;;;;;23.56;56.12;99363.78;5056283;28;19924;-72
2022/08/13 07:02:34;;;;;;;;;;;;;;;23.63;55.83;99365.09;5056352;28;19925;-71
2022/08/13 07:05:04;;;;;;;;;;;;;;;23.64;55.79;99361.53;5055929;28;19963;-72
2022/08/13 07:07:45;;;;;;;;;;;;;;;23.55;56.11;99367.28;5056140;28;19971;-72
2022/08/13 07:10:14;;;;;;;;;;;;;;;23.66;56.26;99361.47;5055842;28;19990;-73
2022/08/13 07:12:43;;;;;;;;;;;;;;;23.73;56.06;99374.00;5054686;28;19982;-73
2022/08/13 07:15:15;;;;;;;;;;;;;;;23.82;55.72;99365.69;5056053;28;19928;-70
2022/08/13 07:18:05;;;;;;;;;;;;;;;23.87;55.56;99366.22;5056056;28;19956;-71
2022/08/13 07:20:34;;;;;;;;;;;;;;;23.92;55.40;99356.34;5055563;28;19928;-71
2022/08/13 07:23:07;;;;;;;;;;;;;;;24.05;55.21;99355.59;5055446;28;19925;-72
2022/08/13 07:25:57;;;;;;;;;;;;;;;24.07;54.66;99356.41;5055334;28;19931;-73
2022/08/13 07:28:27;;;;;;;;;;;;;;;24.00;54.62;99358.50;5055379;28;19925;-79
2022/08/13 07:31:18;;;;;;;;;;;;;;;24.04;53.87;99353.94;5054299;28;19961;-77
2022/08/13 07:33:51;;;;;;;;;;;;;;;24.09;53.76;99357.16;5055616;28;19947;-77
2022/08/13 07:36:27;;;;;;;;;;;;;;;24.22;53.31;99355.44;5055371;28;19925;-78
2022/08/13 07:39:01;;;;;;;;;;;;;;;24.31;52.32;99347.88;5055218;28;19931;-76
2022/08/13 07:41:40;;;;;;;;;;;;;;;24.43;51.70;99351.50;5055277;28;19928;-79
2022/08/13 07:44:28;;;;;;;;;;;;;;;24.52;51.71;99350.94;5055477;28;19931;-77
2022/08/13 07:47:07;;;;;;;;;;;;;;;24.43;51.38;99347.13;5056149;28;19925;-78
2022/08/13 07:49:38;;;;;;;;;;;;;;;24.41;51.66;99348.16;5054248;28;19947;-77
2022/08/13 07:52:13;;;;;;;;;;;;;;;24.47;51.61;99347.78;5055226;28;19925;-75
2022/08/13 07:54:46;;;;;;;;;;;;;;;24.60;51.41;99344.31;4990102;28;20477;-76
2022/08/13 07:57:19;;;;;;;;;;;;;;;24.72;51.29;99347.91;5054925;28;19925;-76
2022/08/13 07:59:55;;;;;;;;;;;;;;;24.67;51.13;99340.38;5023079;28;19970;-77
2022/08/13 08:02:43;;;;;;;;;;;;;;;24.67;51.07;99338.69;5054704;28;19932;-75
2022/08/13 08:05:14;;;;;;;;;;;;;;;24.59;51.27;99326.94;5054820;28;19928;-77
2022/08/13 08:07:50;;;;;;;;;;;;;;;24.56;51.58;99326.31;5054958;28;19975;-75
2022/08/13 08:10:39;;;;;;;;;;;;;;;24.53;51.03;99326.50;5055009;28;19960;-75
2022/08/13 08:13:10;;;;;;;;;;;;;;;24.54;51.00;99329.03;5054601;28;19924;-75
2022/08/13 08:15:41;;;;;;;;;;;;;;;24.55;50.84;99324.63;5054802;28;20290;-74
2022/08/13 08:18:30;;;;;;;;;;;;;;;24.61;50.51;99324.25;5054684;28;20340;-75
2022/08/13 08:21:08;;;;;;;;;;;;;;;24.70;50.17;99323.66;5054329;28;19932;-76
2022/08/13 08:23:58;;;;;;;;;;;;;;;24.69;49.99;99319.38;5054653;28;19932;-75
2022/08/13 08:26:32;;;;;;;;;;;;;;;24.73;49.99;99317.41;5054632;28;19931;-76
2022/08/13 08:29:03;;;;;;;;;;;;;;;24.83;49.75;99318.53;5054647;28;20412;-76
2022/08/13 08:31:33;;;;;;;;;;;;;;;24.91;49.47;99319.69;5054609;28;19931;-77
2022/08/13 08:34:22;;;;;;;;;;;;;;;25.02;49.33;99308.56;5054283;28;19975;-75
2022/08/13 08:36:55;;;;;;;;;;;;;;;25.14;49.66;99308.59;5054173;28;19925;-75
2022/08/13 08:44:57;;;;;;;;;;;;;;;25.29;48.06;99289.28;5045990;28;20069;-74
2022/08/13 08:47:31;;;;;;;;;;;;;;;25.29;47.51;99291.03;5054036;28;19931;-80
2022/08/13 08:50:20;;;;;;;;;;;;;;;25.29;47.71;99280.59;5054277;28;19925;-76
2022/08/13 08:55:55;;;;;;;;;;;;;;;25.72;47.97;99281.19;5054437;28;20011;-78
2022/08/13 08:58:28;;;;;;;;;;;;;;;25.81;47.83;99284.00;5054107;28;19924;-76
2022/08/13 09:01:10;;;;;;;;;;;;;;;25.91;47.78;99281.56;5054320;28;19932;-75
2022/08/13 09:03:42;;;;;;;;;;;;;;;26.11;47.79;99285.41;5053049;28;19925;-76
2022/08/13 09:06:28;;;;;;;;;;;;;;;26.25;47.30;99283.50;5053898;28;20015;-78
2022/08/13 09:09:18;;;;;;;;;;;;;;;26.30;47.20;99276.16;5053937;28;20023;-75
2022/08/13 09:11:47;;;;;;;;;;;;;;;26.51;46.79;99274.59;5052871;28;19932;-75
2022/08/13 09:14:26;;;;;;;;;;;;;;;26.75;46.30;99276.41;5056897;28;19932;-77
2022/08/13 09:16:57;;;;;;;;;;;;;;;26.91;46.05;99282.22;5058817;28;19936;-75
2022/08/13 09:19:27;;;;;;;;;;;;;;;27.12;46.11;99272.75;5058280;28;19929;-78
2022/08/13 09:22:17;;;;;;;;;;;;;;;27.39;45.79;99265.47;5058617;28;19932;-75
2022/08/13 09:24:56;;;;;;;;;;;;;;;27.31;45.55;99259.91;5058060;28;20026;-75
2022/08/13 09:27:28;;;;;;;;;;;;;;;27.31;45.44;99253.88;5057671;28;19931;-74
2022/08/13 09:30:18;;;;;;;;;;;;;;;27.40;45.88;99245.31;5057604;28;19925;-76
2022/08/13 09:32:53;;;;;;;;;;;;;;;27.41;45.64;99250.44;5057620;28;19924;-74
2022/08/13 09:35:25;;;;;;;;;;;;;;;27.23;45.66;99246.59;5057620;28;19925;-74
2022/08/13 09:38:04;;;;;;;;;;;;;;;27.27;45.31;99242.75;5057806;28;20328;-77
2022/08/13 09:40:35;;;;;;;;;;;;;;;27.24;45.05;99243.84;5057495;28;19936;-77
2022/08/13 09:43:19;;;;;;;;;;;;;;;27.27;45.24;99240.16;5057575;28;19925;-75
2022/08/13 09:46:09;;;;;;;;;;;;;;;27.46;45.02;99243.06;5057391;28;19925;-76
2022/08/13 09:48:40;;;;;;;;;;;;;;;27.34;45.04;99246.59;5057546;28;19925;-74
2022/08/13 09:51:14;;;;;;;;;;;;;;;27.42;44.98;99241.63;5057561;28;19924;-75
2022/08/13 09:54:05;;;;;;;;;;;;;;;27.47;44.83;99246.53;5057552;28;19925;-76
2022/08/13 09:56:37;;;;;;;;;;;;;;;27.56;44.67;99246.66;5057257;28;20378;-75
2022/08/13 09:59:08;;;;;;;;;;;;;;;27.89;44.11;99238.78;5057384;28;20370;-77
2022/08/13 10:01:58;;;;;;;;;;;;;;;28.26;44.17;99238.50;5057206;28;20370;-78
2022/08/13 10:04:29;;;;;;;;;;;;;;;28.45;43.78;99236.06;5057522;28;19925;-78
2022/08/13 10:07:01;;;;;;;;;;;;;;;28.40;43.51;99235.59;5057256;28;20382;-78
2022/08/13 10:09:44;;;;;;;;;;;;;;;28.42;43.33;99229.25;5056155;28;19924;-77
2022/08/13 10:12:32;;;;;;;;;;;;;;;28.46;43.03;99235.09;5057545;28;20366;-78
2022/08/13 10:15:01;;;;;;;;;;;;;;;28.40;42.68;99225.09;5057714;28;19951;-78
2022/08/13 10:17:45;;;;;;;;;;;;;;;28.45;42.73;99222.94;5057960;28;20378;-76
2022/08/13 10:20:17;;;;;;;;;;;;;;;28.50;42.74;99232.13;5056831;28;19952;-75
2022/08/13 10:22:47;;;;;;;;;;;;;;;28.47;42.52;99221.84;5057131;28;19925;-80
2022/08/13 10:25:16;;;;;;;;;;;;;;;28.42;42.61;99220.53;5056065;28;20303;-76
2022/08/13 10:27:46;;;;;;;;;;;;;;;28.06;42.91;99215.63;5056513;28;19929;-75
2022/08/13 10:30:19;;;;;;;;;;;;;;;28.20;43.21;99220.59;5055553;28;19932;-72
2022/08/13 10:33:09;;;;;;;;;;;;;;;28.55;43.22;99218.59;5056561;28;20004;-73
2022/08/13 10:35:38;;;;;;;;;;;;;;;28.69;43.08;99218.34;5055466;28;20361;-74
2022/08/13 10:38:14;;;;;;;;;;;;;;;28.67;43.01;99214.16;5056434;28;19932;-75
2022/08/13 10:40:47;;;;;;;;;;;;;;;28.74;42.95;99212.69;5056455;28;20274;-76
2022/08/13 10:43:20;;;;;;;;;;;;;;;28.78;42.98;99220.19;5038628;28;19924;-76
2022/08/13 10:45:56;;;;;;;;;;;;;;;28.82;42.62;99216.34;5056331;28;19925;-75
2022/08/13 10:48:41;;;;;;;;;;;;;;;28.86;42.64;99216.94;5056375;28;19925;-77
2022/08/13 10:51:12;;;;;;;;;;;;;;;29.00;42.42;99209.56;5056173;28;19924;-75
2022/08/13 10:56:21;;;;;;;;;;;;;;;29.38;42.76;99197.63;5056003;28;19933;-75
2022/08/13 10:58:55;;;;;;;;;;;;;;;29.41;42.67;99190.31;5054805;28;20393;-75
2022/08/13 11:01:26;;;;;;;;;;;;;;;29.37;43.24;99190.72;5055783;28;19983;-75
2022/08/13 11:03:58;;;;;;;;;;;;;;;29.39;42.40;99188.78;5055937;28;19974;-77
2022/08/13 11:06:34;;;;;;;;;;;;;;;29.37;42.07;99183.63;5056302;28;20333;-75
2022/08/13 11:09:04;;;;;;;;;;;;;;;29.38;42.33;99184.47;5054740;28;19931;-76
2022/08/13 11:11:53;;;;;;;;;;;;;;;29.45;42.79;99172.44;5055964;28;20011;-76
2022/08/13 11:14:23;;;;;;;;;;;;;;;29.59;42.46;99170.28;5056252;28;19925;-76
2022/08/13 11:16:59;;;;;;;;;;;;;;;29.51;42.01;99164.03;5055722;28;19929;-77
2022/08/13 11:19:34;;;;;;;;;;;;;;;29.65;41.63;99168.94;5056374;28;19925;-74
2022/08/13 11:22:20;;;;;;;;;;;;;;;29.75;42.57;99164.53;5055538;28;19925;-75
2022/08/13 11:24:55;;;;;;;;;;;;;;;29.77;41.89;99162.63;5055757;28;20019;-77
2022/08/13 11:27:26;;;;;;;;;;;;;;;29.60;41.89;99160.59;5055838;28;20293;-76
2022/08/13 11:30:16;;;;;;;;;;;;;;;29.58;42.66;99152.03;5055603;28;19925;-79
2022/08/13 11:33:03;;;;;;;;;;;;;;;29.59;43.58;99153.66;5055796;28;19971;-76
2022/08/13 11:35:42;;;;;;;;;;;;;;;29.72;42.95;99149.00;5055871;28;20019;-75
2022/08/13 11:38:17;;;;;;;;;;;;;;;29.95;41.65;99147.84;5054246;28;19924;-77
2022/08/13 11:40:48;;;;;;;;;;;;;;;29.84;41.51;99145.34;5055064;28;19929;-73
2022/08/13 11:43:21;;;;;;;;;;;;;;;29.50;41.19;99143.97;5055125;28;20032;-75
2022/08/13 11:45:49;;;;;;;;;;;;;;;29.35;41.49;99137.38;5055137;28;19925;-77
2022/08/13 11:48:18;;;;;;;;;;;;;;;29.59;41.33;99137.88;5054949;28;19971;-77
2022/08/13 11:51:06;;;;;;;;;;;;;;;29.91;41.18;99143.81;5055242;28;20353;-76
2022/08/13 11:53:34;;;;;;;;;;;;;;;30.23;40.59;99141.78;5055559;28;19925;-75
2022/08/13 11:56:23;;;;;;;;;;;;;;;30.10;40.36;99138.56;5055469;28;20244;-76
2022/08/13 11:58:57;;;;;;;;;;;;;;;29.67;40.68;99138.06;5054559;28;19928;-77
2022/08/13 12:01:26;;;;;;;;;;;;;;;29.68;41.07;99142.38;5054902;28;19925;-77
2022/08/13 12:04:12;;;;;;;;;;;;;;;29.75;41.31;99133.78;5054855;28;19932;-75
2022/08/13 12:06:47;;;;;;;;;;;;;;;29.81;41.24;99135.91;5053750;28;20386;-75
2022/08/13 12:09:18;;;;;;;;;;;;;;;29.73;41.42;99125.19;5054717;28;19935;-75
2022/08/13 12:12:07;;;;;;;;;;;;;;;29.49;41.41;99126.53;5054653;28;20428;-75
2022/08/13 12:14:50;;;;;;;;;;;;;;;29.36;41.75;99128.53;5054850;28;20409;-75
2022/08/13 12:17:19;;;;;;;;;;;;;;;29.23;42.51;99130.59;5053738;28;19931;-75
2022/08/13 12:20:08;;;;;;;;;;;;;;;29.15;43.05;99126.75;5054526;28;19936;-77
2022/08/13 12:22:49;;;;;;;;;;;;;;;29.11;42.69;99130.63;5054802;28;20036;-75
2022/08/13 12:25:19;;;;;;;;;;;;;;;29.24;42.91;99122.56;5054768;28;19960;-76
2022/08/13 12:28:10;;;;;;;;;;;;;;;29.42;42.11;99120.13;5054527;28;20374;-74
2022/08/13 12:30:49;;;;;;;;;;;;;;;29.72;42.67;99123.53;5054324;28;19925;-75
2022/08/13 12:33:18;;;;;;;;;;;;;;;29.74;42.15;99120.75;5054253;28;20285;-75
2022/08/13 12:35:49;;;;;;;;;;;;;;;29.84;42.31;99117.22;5053301;28;19925;-75
2022/08/13 12:38:26;;;;;;;;;;;;;;;29.95;41.55;99113.63;5072710;28;19925;-75
2022/08/13 12:40:58;;;;;;;;;;;;;;;29.95;41.17;99107.50;5072356;28;20258;-77
2022/08/13 12:43:46;;;;;;;;;;;;;;;30.06;40.76;99108.25;5072250;28;19924;-74
2022/08/13 12:46:35;;;;;;;;;;;;;;;30.30;41.04;99103.38;5072611;28;19994;-77
2022/08/13 12:49:04;;;;;;;;;;;;;;;30.41;41.64;99105.91;5071821;28;19970;-77
2022/08/13 12:51:41;;;;;;;;;;;;;;;30.44;40.86;99105.63;5072200;28;19928;-77
2022/08/13 12:54:25;;;;;;;;;;;;;;;30.57;40.21;99101.88;5055813;28;19982;-78
2022/08/13 12:57:14;;;;;;;;;;;;;;;30.70;40.04;99099.75;5071954;28;19924;-76
2022/08/13 13:00:06;;;;;;;;;;;;;;;30.68;39.91;99106.97;5071507;28;20230;-77
2022/08/13 13:02:41;;;;;;;;;;;;;;;30.52;40.25;99097.81;5072118;28;19925;-77
2022/08/13 13:05:15;;;;;;;;;;;;;;;30.36;40.80;99099.38;5072022;28;20486;-75
2022/08/13 13:07:47;;;;;;;;;;;;;;;30.00;40.71;99092.97;5072072;28;20011;-77
2022/08/13 13:10:38;;;;;;;;;;;;;;;30.07;40.95;99091.44;5071826;28;20019;-75
2022/08/13 13:13:14;;;;;;;;;;;;;;;30.20;41.11;99094.66;5072255;28;19925;-76
2022/08/13 13:16:04;;;;;;;;;;;;;;;30.49;40.40;99082.31;5063130;28;19947;-74
2022/08/13 13:18:53;;;;;;;;;;;;;;;30.70;39.53;99083.94;5053719;28;19931;-76
2022/08/13 13:21:28;;;;;;;;;;;;;;;30.74;39.42;99080.06;5053957;28;20011;-75
2022/08/13 13:24:07;;;;;;;;;;;;;;;30.58;39.37;99077.16;5054201;28;20020;-77
2022/08/13 13:26:47;;;;;;;;;;;;;;;30.58;39.17;99080.63;5054518;28;20320;-74
2022/08/13 13:29:28;;;;;;;;;;;;;;;30.75;38.79;99076.44;5053940;28;19924;-75
2022/08/13 13:32:03;;;;;;;;;;;;;;;30.93;38.96;99066.84;5053874;28;20286;-76
2022/08/13 13:34:52;;;;;;;;;;;;;;;31.37;37.71;99076.63;5053819;28;19929;-78
2022/08/13 13:37:23;;;;;;;;;;;;;;;31.60;37.16;99075.25;5053797;28;19925;-78
2022/08/13 13:40:12;;;;;;;;;;;;;;;31.64;36.45;99070.53;5054038;28;20267;-77
2022/08/13 13:42:42;;;;;;;;;;;;;;;31.50;36.09;99071.88;5053995;28;20274;-77
2022/08/13 13:45:31;;;;;;;;;;;;;;;31.49;36.10;99059.63;5054101;28;19928;-77
2022/08/13 13:48:17;;;;;;;;;;;;;;;31.77;36.83;99061.25;5054284;28;20420;-77
2022/08/13 13:50:46;;;;;;;;;;;;;;;31.82;36.03;99049.41;5053895;28;19925;-78
2022/08/13 13:53:15;;;;;;;;;;;;;;;31.82;35.50;99046.78;5053546;28;19979;-77
2022/08/13 13:55:58;;;;;;;;;;;;;;;31.80;35.44;99049.56;5054153;28;20011;-77
2022/08/13 13:58:31;;;;;;;;;;;;;;;31.74;35.92;99040.44;5053233;28;19986;-76
2022/08/13 14:01:20;;;;;;;;;;;;;;;31.71;35.44;99051.31;5054366;28;19924;-77
2022/08/13 14:03:50;;;;;;;;;;;;;;;31.46;35.33;99052.00;5057562;28;20007;-75
2022/08/13 14:06:29;;;;;;;;;;;;;;;31.29;36.46;99044.84;5056973;28;19932;-77
2022/08/13 14:09:01;;;;;;;;;;;;;;;31.20;36.48;99042.25;5056906;28;19931;-77